createdAt,value
2018-02-23T00:01:28.034Z,45.32
2018-02-23T00:03:55.696Z,45.24
2018-02-23T00:06:23.246Z,45.61
2018-02-23T00:08:50.754Z,45.86
2018-02-23T00:11:18.351Z,46.18
2018-02-23T00:13:45.866Z,47.08
2018-02-23T00:16:13.381Z,46.41
2018-02-23T00:18:40.926Z,46.50
2018-02-23T00:21:08.459Z,46.46
2018-02-23T00:23:36.165Z,46.37
2018-02-23T00:26:03.692Z,45.88
2018-02-23T00:28:31.211Z,46.08
2018-02-23T00:30:58.782Z,46.34
2018-02-23T00:33:26.298Z,46.36
2018-02-23T00:35:53.844Z,46.51
2018-02-23T00:38:21.359Z,46.47
2018-02-23T00:40:48.871Z,46.47
2018-02-23T00:43:17.198Z,47.00
2018-02-23T00:45:44.721Z,46.94
2018-02-23T00:48:12.266Z,47.04
2018-02-23T00:50:39.789Z,47.15
2018-02-23T00:53:07.314Z,47.59
2018-02-23T00:55:34.875Z,47.39
2018-02-23T00:58:02.729Z,47.66
2018-02-23T01:00:30.251Z,47.25
2018-02-23T01:02:57.790Z,47.24
2018-02-23T01:05:25.315Z,47.41
2018-02-23T01:07:52.874Z,47.39
2018-02-23T01:10:20.403Z,47.38
2018-02-23T01:12:47.935Z,47.27
2018-02-23T01:15:15.465Z,47.66
2018-02-23T01:17:43.018Z,47.88
2018-02-23T01:20:10.730Z,47.73
2018-02-23T01:22:38.261Z,47.08
2018-02-23T01:25:05.798Z,48.03
2018-02-23T01:27:33.507Z,47.87
2018-02-23T01:30:01.027Z,47.74
2018-02-23T01:32:28.565Z,47.52
2018-02-23T01:34:56.120Z,47.36
2018-02-23T01:37:23.655Z,47.87
2018-02-23T01:39:51.175Z,48.08
2018-02-23T01:42:19.202Z,48.26
2018-02-23T01:44:46.713Z,47.68
2018-02-23T01:47:14.217Z,47.84
2018-02-23T01:49:41.947Z,48.48
2018-02-23T01:52:09.466Z,47.87
2018-02-23T01:54:37.004Z,47.91
2018-02-23T01:57:04.746Z,47.40
2018-02-23T01:59:32.323Z,47.63
2018-02-23T02:01:59.834Z,48.23
2018-02-23T02:04:27.401Z,48.06
2018-02-23T02:06:54.922Z,47.50
2018-02-23T02:09:22.458Z,47.98
2018-02-23T02:11:50.038Z,48.67
2018-02-23T02:14:17.553Z,48.89
2018-02-23T02:16:45.065Z,47.84
2018-02-23T02:19:13.197Z,47.94
2018-02-23T02:21:40.717Z,48.54
2018-02-23T02:24:08.241Z,48.14
2018-02-23T02:26:36.285Z,47.97
2018-02-23T02:29:03.798Z,47.80
2018-02-23T02:31:31.311Z,48.07
2018-02-23T02:33:59.041Z,47.95
2018-02-23T02:36:26.564Z,47.93
2018-02-23T02:38:54.084Z,48.28
2018-02-23T02:41:21.635Z,47.87
2018-02-23T02:43:49.159Z,47.97
2018-02-23T02:46:16.677Z,48.03
2018-02-23T02:48:44.394Z,47.65
2018-02-23T02:51:11.911Z,48.11
2018-02-23T02:53:39.431Z,47.32
2018-02-23T02:56:07.209Z,47.53
2018-02-23T02:58:34.722Z,47.95
2018-02-23T03:01:02.238Z,47.68
2018-02-23T03:03:29.928Z,47.83
2018-02-23T03:05:57.440Z,47.85
2018-02-23T03:08:24.954Z,48.15
2018-02-23T03:10:52.490Z,48.35
2018-02-23T03:13:19.998Z,48.17
2018-02-23T03:15:47.526Z,48.06
2018-02-23T03:18:15.075Z,47.76
2018-02-23T03:20:42.597Z,48.30
2018-02-23T03:23:10.112Z,48.20
2018-02-23T03:25:37.674Z,48.24
2018-02-23T03:28:05.181Z,48.27
2018-02-23T03:30:32.695Z,48.05
2018-02-23T03:33:00.238Z,48.08
2018-02-23T03:35:27.759Z,48.31
2018-02-23T03:37:55.284Z,47.95
2018-02-23T03:40:22.821Z,48.22
2018-02-23T03:42:50.333Z,47.79
2018-02-23T03:45:17.844Z,47.89
2018-02-23T03:47:46.351Z,48.46
2018-02-23T03:50:14.030Z,47.78
2018-02-23T03:52:41.693Z,47.99
2018-02-23T03:55:09.239Z,47.83
2018-02-23T03:57:36.843Z,49.08
2018-02-23T04:00:04.357Z,48.42
2018-02-23T04:02:31.899Z,48.16
2018-02-23T04:04:59.414Z,48.54
2018-02-23T04:07:26.931Z,47.78
2018-02-23T04:09:54.470Z,48.23
2018-02-23T04:12:21.997Z,48.19
2018-02-23T04:14:49.532Z,48.89
2018-02-23T04:17:17.087Z,48.43
2018-02-23T04:19:44.602Z,48.18
2018-02-23T04:22:12.110Z,47.87
2018-02-23T04:24:39.650Z,47.75
2018-02-23T04:27:07.153Z,48.82
2018-02-23T04:29:34.674Z,48.52
2018-02-23T04:32:02.218Z,48.71
2018-02-23T04:34:29.729Z,48.95
2018-02-23T04:36:57.249Z,49.36
2018-02-23T04:39:25.112Z,49.29
2018-02-23T04:41:52.635Z,48.25
2018-02-23T04:44:20.150Z,49.06
2018-02-23T04:46:47.694Z,49.64
2018-02-23T04:49:15.258Z,49.04
2018-02-23T04:51:42.759Z,49.42
2018-02-23T04:54:10.317Z,49.58
2018-02-23T04:56:37.847Z,49.93
2018-02-23T04:59:05.373Z,49.42
2018-02-23T05:01:32.937Z,49.76
2018-02-23T05:04:00.462Z,49.82
2018-02-23T05:06:27.973Z,49.79
2018-02-23T05:08:55.521Z,49.75
2018-02-23T05:11:23.041Z,49.70
2018-02-23T05:13:50.563Z,49.98
2018-02-23T05:16:18.620Z,50.09
2018-02-23T05:18:46.135Z,50.12
2018-02-23T05:21:13.655Z,50.50
2018-02-23T05:23:41.197Z,49.34
2018-02-23T05:26:08.718Z,50.07
2018-02-23T05:28:36.241Z,50.38
2018-02-23T05:31:03.790Z,49.75
2018-02-23T05:33:31.316Z,50.13
2018-02-23T05:35:58.849Z,50.43
2018-02-23T05:38:26.392Z,50.03
2018-02-23T05:40:53.917Z,50.36
2018-02-23T05:43:21.442Z,50.98
2018-02-23T05:45:48.981Z,50.64
2018-02-23T05:48:16.502Z,50.63
2018-02-23T05:50:44.025Z,50.82
2018-02-23T05:53:11.582Z,51.09
2018-02-23T05:55:39.109Z,50.02
2018-02-23T05:58:06.635Z,50.40
2018-02-23T06:00:34.178Z,50.41
2018-02-23T06:03:01.713Z,50.78
2018-02-23T06:05:29.257Z,50.48
2018-02-23T06:07:56.805Z,50.56
2018-02-23T06:10:24.328Z,50.65
2018-02-23T06:12:51.852Z,51.02
2018-02-23T06:15:19.389Z,50.66
2018-02-23T06:17:52.460Z,50.66
2018-02-23T06:20:25.680Z,51.21
2018-02-23T06:22:53.226Z,51.17
2018-02-23T06:25:20.750Z,50.47
2018-02-23T06:27:48.402Z,50.64
2018-02-23T06:30:15.918Z,51.31
2018-02-23T06:32:43.452Z,51.30
2018-02-23T06:35:10.994Z,50.97
2018-02-23T06:37:38.900Z,51.02
2018-02-23T06:40:06.422Z,51.37
2018-02-23T06:42:34.301Z,52.07
2018-02-23T06:45:01.822Z,51.37
2018-02-23T06:47:29.342Z,51.03
2018-02-23T06:49:56.886Z,51.25
2018-02-23T06:52:24.421Z,52.18
2018-02-23T06:54:51.946Z,50.80
2018-02-23T06:57:19.499Z,51.46
2018-02-23T06:59:47.019Z,51.12
2018-02-23T07:02:14.583Z,50.87
2018-02-23T07:04:42.166Z,51.24
2018-02-23T07:07:09.701Z,50.78
2018-02-23T07:09:37.236Z,50.71
2018-02-23T07:12:04.786Z,50.53
2018-02-23T07:14:32.311Z,51.15
2018-02-23T07:16:59.849Z,50.51
2018-02-23T07:19:28.327Z,51.21
2018-02-23T07:21:55.849Z,51.57
2018-02-23T07:24:23.382Z,51.84
2018-02-23T07:26:50.934Z,50.77
2018-02-23T07:29:18.468Z,50.62
2018-02-23T07:31:46.022Z,49.99
2018-02-23T07:34:13.562Z,50.24
2018-02-23T07:36:41.073Z,49.37
2018-02-23T07:39:08.597Z,50.30
2018-02-23T07:41:36.143Z,49.63
2018-02-23T07:44:03.666Z,49.58
2018-02-23T07:46:31.185Z,49.67
2018-02-23T07:48:58.773Z,49.89
2018-02-23T07:51:26.287Z,49.58
2018-02-23T07:53:53.810Z,49.74
2018-02-23T07:56:21.391Z,49.97
2018-02-23T07:58:48.918Z,49.90
2018-02-23T08:01:16.446Z,49.15
2018-02-23T08:03:43.989Z,49.70
2018-02-23T08:06:11.527Z,48.65
2018-02-23T08:08:39.050Z,49.68
2018-02-23T08:11:06.635Z,48.40
2018-02-23T08:13:34.170Z,49.09
2018-02-23T08:16:01.704Z,50.00
2018-02-23T08:18:29.253Z,49.77
2018-02-23T08:20:56.777Z,49.36
2018-02-23T08:23:24.358Z,48.77
2018-02-23T08:25:51.912Z,49.10
2018-02-23T08:28:19.461Z,48.80
2018-02-23T08:30:46.978Z,48.57
2018-02-23T08:33:14.779Z,48.45
2018-02-23T08:35:42.297Z,47.73
2018-02-23T08:38:09.815Z,48.01
2018-02-23T08:40:37.422Z,48.53
2018-02-23T08:43:04.946Z,48.62
2018-02-23T08:45:32.474Z,48.20
2018-02-23T08:48:00.027Z,48.18
2018-02-23T08:50:27.593Z,47.70
2018-02-23T08:52:55.115Z,48.11
2018-02-23T08:55:23.017Z,47.94
2018-02-23T08:57:50.537Z,47.19
2018-02-23T09:00:19.992Z,47.29
2018-02-23T09:02:47.620Z,48.39
2018-02-23T09:05:15.130Z,48.18
2018-02-23T09:07:42.653Z,47.95
2018-02-23T09:10:10.409Z,47.49
2018-02-23T09:12:37.940Z,47.71
2018-02-23T09:15:05.480Z,47.89
2018-02-23T09:17:33.037Z,47.43
2018-02-23T09:20:00.561Z,47.22
2018-02-23T09:22:28.081Z,46.80
2018-02-23T09:24:55.638Z,46.37
2018-02-23T09:27:23.154Z,46.35
2018-02-23T09:29:50.670Z,47.17
2018-02-23T09:32:20.818Z,46.34
2018-02-23T09:34:48.333Z,46.05
2018-02-23T09:37:15.854Z,46.28
2018-02-23T09:39:43.403Z,45.52
2018-02-23T09:42:10.923Z,46.37
2018-02-23T09:44:38.718Z,45.42
2018-02-23T09:47:06.287Z,45.79
2018-02-23T09:49:33.797Z,44.22
2018-02-23T09:52:01.338Z,44.35
2018-02-23T09:54:28.886Z,44.47
2018-02-23T09:56:56.452Z,44.82
2018-02-23T09:59:24.018Z,44.36
2018-02-23T10:01:51.536Z,44.87
2018-02-23T10:04:19.085Z,44.80
2018-02-23T10:06:46.604Z,44.72
2018-02-23T10:09:14.178Z,43.88
2018-02-23T10:11:41.776Z,44.67
2018-02-23T10:14:09.539Z,43.77
2018-02-23T10:16:37.123Z,43.99
2018-02-23T10:19:05.478Z,43.02
2018-02-23T10:21:33.652Z,43.11
2018-02-23T10:24:01.518Z,43.84
2018-02-23T10:26:29.086Z,45.15
2018-02-23T10:28:58.482Z,44.43
2018-02-23T10:31:26.143Z,43.69
2018-02-23T10:33:54.418Z,42.67
2018-02-23T10:36:25.936Z,44.55
2018-02-23T10:38:53.837Z,44.06
2018-02-23T10:41:21.715Z,44.20
2018-02-23T10:43:49.258Z,43.38
2018-02-23T10:46:18.153Z,44.13
2018-02-23T10:48:45.956Z,44.44
2018-02-23T10:51:13.785Z,44.32
2018-02-23T10:53:41.375Z,43.78
2018-02-23T10:56:08.889Z,43.80
2018-02-23T10:58:36.402Z,43.87
2018-02-23T11:01:03.979Z,44.52
2018-02-23T11:03:31.737Z,44.69
2018-02-23T11:05:59.543Z,44.74
2018-02-23T11:08:27.312Z,45.45
2018-02-23T11:10:54.862Z,44.64
2018-02-23T11:13:22.485Z,44.91
2018-02-23T11:15:50.093Z,45.28
2018-02-23T11:18:17.757Z,45.64
2018-02-23T11:20:45.418Z,44.51
2018-02-23T11:23:12.979Z,45.43
2018-02-23T11:25:40.518Z,44.80
2018-02-23T11:28:08.108Z,44.42
2018-02-23T11:30:35.618Z,44.30
2018-02-23T11:33:03.246Z,43.64
2018-02-23T11:35:30.918Z,44.54
2018-02-23T11:37:58.438Z,44.31
2018-02-23T11:40:25.995Z,44.30
2018-02-23T11:42:53.514Z,43.74
2018-02-23T11:45:21.128Z,41.60
2018-02-23T11:47:48.690Z,40.15
2018-02-23T11:50:16.237Z,39.60
2018-02-23T11:52:43.770Z,40.49
2018-02-23T11:55:11.307Z,41.98
2018-02-23T11:57:44.768Z,41.89
2018-02-23T12:00:12.281Z,42.20
2018-02-23T12:02:40.786Z,41.93
2018-02-23T12:05:08.373Z,42.15
2018-02-23T12:07:36.113Z,41.67
2018-02-23T12:10:03.694Z,42.35
2018-02-23T12:12:31.382Z,43.26
2018-02-23T12:14:59.172Z,44.08
2018-02-23T12:17:26.843Z,42.83
2018-02-23T12:19:54.721Z,43.02
2018-02-23T12:22:23.408Z,43.10
2018-02-23T12:24:51.376Z,42.87
2018-02-23T12:27:19.344Z,41.34
2018-02-23T12:29:47.417Z,42.38
2018-02-23T12:32:15.002Z,41.71
2018-02-23T12:34:42.844Z,41.04
2018-02-23T12:37:10.385Z,41.82
2018-02-23T12:39:38.149Z,41.44
2018-02-23T12:42:05.802Z,40.06
2018-02-23T12:44:33.525Z,40.19
2018-02-23T12:47:01.431Z,38.69
2018-02-23T12:49:28.984Z,38.04
2018-02-23T12:51:56.757Z,37.86
2018-02-23T12:54:24.647Z,38.35
2018-02-23T12:56:52.448Z,38.78
2018-02-23T12:59:20.461Z,37.87
2018-02-23T13:01:48.266Z,37.49
2018-02-23T13:04:16.115Z,36.50
2018-02-23T13:06:44.013Z,37.94
2018-02-23T13:09:12.051Z,38.70
2018-02-23T13:11:40.948Z,38.70
2018-02-23T13:14:09.386Z,38.79
2018-02-23T13:16:37.392Z,38.16
2018-02-23T13:19:05.258Z,38.64
2018-02-23T13:21:33.328Z,38.42
2018-02-23T13:24:01.101Z,38.90
2018-02-23T13:26:29.123Z,37.97
2018-02-23T13:28:57.124Z,38.17
2018-02-23T13:31:25.923Z,37.47
2018-02-23T13:33:54.149Z,37.74
2018-02-23T13:36:21.933Z,38.44
2018-02-23T13:38:50.754Z,39.10
2018-02-23T13:41:24.290Z,39.28
2018-02-23T13:43:52.319Z,39.00
2018-02-23T13:46:20.253Z,38.67
2018-02-23T13:48:48.044Z,39.64
2018-02-23T13:51:16.190Z,40.53
2018-02-23T13:53:45.935Z,41.18
2018-02-23T13:56:13.768Z,40.98
2018-02-23T13:58:41.567Z,41.26
2018-02-23T14:01:09.330Z,40.92
2018-02-23T14:03:37.591Z,41.59
2018-02-23T14:06:05.383Z,41.71
2018-02-23T14:08:33.133Z,41.95
2018-02-23T14:11:00.898Z,41.37
2018-02-23T14:13:28.735Z,42.06
2018-02-23T14:15:56.534Z,41.48
2018-02-23T14:18:24.600Z,41.97
2018-02-23T14:20:52.475Z,42.31
2018-02-23T14:23:20.666Z,42.68
2018-02-23T14:25:48.531Z,42.71
2018-02-23T14:28:16.485Z,42.87
2018-02-23T14:30:44.727Z,42.53
2018-02-23T14:33:12.825Z,42.72
2018-02-23T14:35:41.719Z,43.15
2018-02-23T14:38:09.479Z,42.38
2018-02-23T14:40:37.398Z,43.17
2018-02-23T14:43:05.314Z,42.92
2018-02-23T14:45:33.180Z,43.13
2018-02-23T14:48:01.641Z,42.90
2018-02-23T14:53:38.720Z,42.02
2018-02-23T14:56:06.731Z,42.44
2018-02-23T14:58:34.680Z,43.28
2018-02-23T15:01:02.945Z,42.90
2018-02-23T15:03:30.540Z,43.80
2018-02-23T15:05:58.425Z,43.63
2018-02-23T15:08:26.404Z,43.61
2018-02-23T15:10:54.545Z,44.25
2018-02-23T15:13:22.409Z,43.74
2018-02-23T15:15:50.378Z,43.94
2018-02-23T15:18:18.579Z,43.72
2018-02-23T15:20:46.445Z,43.95
2018-02-23T15:23:14.713Z,43.73
2018-02-23T15:25:42.664Z,43.31
2018-02-23T15:28:10.848Z,44.37
2018-02-23T15:30:50.890Z,44.09
2018-02-23T15:33:18.775Z,44.51
2018-02-23T15:35:46.378Z,44.53
2018-02-23T15:38:14.286Z,44.55
2018-02-23T15:40:42.357Z,44.84
2018-02-23T15:43:10.302Z,45.08
2018-02-23T15:45:38.980Z,45.35
2018-02-23T15:48:12.508Z,45.39
2018-02-23T15:50:45.905Z,45.53
2018-02-23T15:53:13.790Z,45.27
2018-02-23T15:55:42.355Z,44.78
2018-02-23T15:58:15.877Z,44.54
2018-02-23T16:00:43.824Z,44.63
2018-02-23T16:03:11.789Z,44.49
2018-02-23T16:05:39.759Z,45.27
2018-02-23T16:08:07.526Z,44.67
2018-02-23T16:10:35.656Z,44.47
2018-02-23T16:13:03.523Z,44.61
2018-02-23T16:15:31.942Z,45.14
2018-02-23T16:18:00.403Z,44.92
2018-02-23T16:20:28.701Z,44.99
2018-02-23T16:22:57.281Z,45.53
2018-02-23T16:25:25.064Z,46.07
2018-02-23T16:27:53.322Z,46.20
2018-02-23T16:30:21.263Z,45.72
2018-02-23T16:32:49.076Z,46.06
2018-02-23T16:35:17.330Z,45.76
2018-02-23T16:37:45.526Z,46.04
2018-02-23T16:40:13.881Z,45.66
2018-02-23T16:42:41.851Z,45.98
2018-02-23T16:45:10.538Z,46.35
2018-02-23T16:47:38.608Z,46.70
2018-02-23T16:50:06.475Z,46.39
2018-02-23T16:52:34.444Z,46.31
2018-02-23T16:55:04.563Z,46.19
2018-02-23T16:57:32.325Z,46.24
2018-02-23T17:00:00.296Z,46.01
2018-02-23T17:02:31.651Z,45.83
2018-02-23T17:04:59.613Z,45.61
2018-02-23T17:07:27.901Z,45.89
2018-02-23T17:09:56.370Z,46.17
2018-02-23T17:12:24.418Z,46.15
2018-02-23T17:14:52.308Z,45.98
2018-02-23T17:17:20.995Z,45.94
2018-02-23T17:19:48.963Z,45.81
2018-02-23T17:22:16.930Z,45.87
2018-02-23T17:24:44.901Z,45.79
2018-02-23T17:27:12.867Z,46.03
2018-02-23T17:29:40.837Z,45.75
2018-02-23T17:32:08.909Z,45.95
2018-02-23T17:34:36.879Z,46.13
2018-02-23T17:37:04.747Z,45.96
2018-02-23T17:39:32.612Z,46.01
2018-02-23T17:42:00.475Z,46.17
2018-02-23T17:44:28.347Z,45.92
2018-02-23T17:46:56.317Z,45.88
2018-02-23T17:49:24.177Z,45.77
2018-02-23T17:51:52.408Z,45.40
2018-02-23T17:54:21.055Z,45.55
2018-02-23T17:56:49.008Z,45.70
2018-02-23T17:59:16.769Z,45.80
2018-02-23T18:01:44.636Z,45.64
2018-02-23T18:04:12.707Z,45.54
2018-02-23T18:06:40.677Z,45.58
2018-02-23T18:09:08.543Z,45.87
2018-02-23T18:11:36.306Z,46.03
2018-02-23T18:14:04.176Z,45.94
2018-02-23T18:16:31.992Z,45.95
2018-02-23T18:18:59.918Z,46.10
2018-02-23T18:21:27.731Z,46.20
2018-02-23T18:23:55.573Z,46.18
2018-02-23T18:26:23.300Z,46.35
2018-02-23T18:28:51.270Z,45.88
2018-02-23T18:31:19.723Z,46.47
2018-02-23T18:33:47.616Z,46.80
2018-02-23T18:36:15.389Z,46.47
2018-02-23T18:38:43.246Z,46.64
2018-02-23T18:41:11.216Z,46.91
2018-02-23T18:43:38.990Z,46.10
2018-02-23T18:46:06.744Z,46.24
2018-02-23T18:48:34.889Z,45.60
2018-02-23T18:51:02.538Z,46.02
2018-02-23T18:53:30.649Z,46.24
2018-02-23T18:55:59.541Z,46.31
2018-02-23T18:58:27.407Z,46.17
2018-02-23T19:00:55.245Z,45.98
2018-02-23T19:03:23.037Z,46.19
2018-02-23T19:05:51.211Z,46.18
2018-02-23T19:08:19.180Z,46.67
2018-02-23T19:10:47.186Z,46.39
2018-02-23T19:13:15.354Z,46.72
2018-02-23T19:15:43.469Z,47.06
2018-02-23T19:18:11.861Z,47.18
2018-02-23T19:20:39.741Z,47.57
2018-02-23T19:23:07.608Z,48.41
2018-02-23T19:25:35.474Z,48.30
2018-02-23T19:28:03.630Z,47.97
2018-02-23T19:30:31.520Z,47.85
2018-02-23T19:32:59.279Z,48.92
2018-02-23T19:35:27.180Z,48.29
2018-02-23T19:37:55.114Z,48.36
2018-02-23T19:40:23.185Z,47.76
2018-02-23T19:42:51.460Z,48.36
2018-02-23T19:45:19.298Z,48.43
2018-02-23T19:47:46.988Z,48.25
2018-02-23T19:50:14.695Z,47.84
2018-02-23T19:52:42.620Z,47.67
2018-02-23T19:55:10.691Z,46.73
2018-02-23T19:57:38.763Z,46.53
2018-02-23T20:00:06.401Z,47.07
2018-02-23T20:02:35.213Z,46.23
2018-02-23T20:05:02.810Z,45.39
2018-02-23T20:07:30.739Z,45.85
2018-02-23T20:09:58.346Z,44.81
2018-02-23T20:12:26.165Z,44.90
2018-02-23T20:14:53.974Z,44.81
2018-02-23T20:17:21.690Z,44.93
2018-02-23T20:19:50.584Z,44.72
2018-02-23T20:22:20.411Z,45.22
2018-02-23T20:24:48.127Z,44.82
2018-02-23T20:27:16.027Z,45.39
2018-02-23T20:29:44.671Z,45.52
2018-02-23T20:32:13.156Z,44.89
2018-02-23T20:34:41.058Z,45.44
2018-02-23T20:37:08.926Z,45.49
2018-02-23T20:39:36.792Z,45.28
2018-02-23T20:42:04.659Z,44.89
2018-02-23T20:44:33.141Z,44.73
2018-02-23T20:47:01.006Z,45.33
2018-02-23T20:49:29.078Z,45.71
2018-02-23T20:51:56.963Z,45.76
2018-02-23T20:54:24.882Z,45.34
2018-02-23T20:56:52.980Z,45.59
2018-02-23T20:59:21.262Z,45.58
2018-02-23T21:01:49.127Z,45.71
2018-02-23T21:04:17.205Z,45.94
2018-02-23T21:06:45.272Z,45.75
2018-02-23T21:09:13.445Z,45.27
2018-02-23T21:11:41.514Z,45.14
2018-02-23T21:14:09.791Z,45.50
2018-02-23T21:16:38.190Z,45.03
2018-02-23T21:19:06.034Z,45.32
2018-02-23T21:21:34.517Z,45.21
2018-02-23T21:24:02.381Z,45.67
2018-02-23T21:26:30.761Z,45.61
2018-02-23T21:28:58.729Z,45.73
2018-02-23T21:31:27.006Z,45.82
2018-02-23T21:33:55.179Z,45.53
2018-02-23T21:36:22.942Z,45.78
2018-02-23T21:38:50.531Z,45.44
2018-02-23T21:41:18.472Z,45.65
2018-02-23T21:43:46.337Z,45.30
2018-02-23T21:46:14.105Z,45.25
2018-02-23T21:48:42.439Z,45.55
2018-02-23T21:51:10.345Z,45.43
2018-02-23T21:53:38.212Z,45.93
2018-02-23T21:56:06.141Z,46.20
2018-02-23T21:58:34.037Z,45.97
2018-02-23T22:01:01.913Z,46.00
2018-02-23T22:03:29.678Z,45.92
2018-02-23T22:05:57.442Z,46.10
2018-02-23T22:08:25.206Z,46.19
2018-02-23T22:10:53.278Z,46.75
2018-02-23T22:13:21.082Z,47.98
2018-02-23T22:15:48.678Z,47.11
2018-02-23T22:18:16.390Z,47.04
2018-02-23T22:20:43.985Z,47.50
2018-02-23T22:23:11.926Z,47.80
2018-02-23T22:25:39.457Z,47.50
2018-02-23T22:28:07.185Z,48.00
2018-02-23T22:30:34.789Z,47.85
2018-02-23T22:33:02.333Z,47.89
2018-02-23T22:35:30.815Z,48.49
2018-02-23T22:37:58.555Z,48.22
2018-02-23T22:40:26.067Z,48.60
2018-02-23T22:42:53.614Z,48.97
2018-02-23T22:45:21.124Z,47.94
2018-02-23T22:47:48.702Z,48.46
2018-02-23T22:50:16.247Z,48.39
2018-02-23T22:52:43.792Z,47.41
2018-02-23T22:55:11.358Z,48.02
2018-02-23T22:57:38.873Z,48.41
2018-02-23T23:00:07.458Z,48.34
2018-02-23T23:02:34.989Z,47.67
2018-02-23T23:05:02.506Z,48.20
2018-02-23T23:07:30.068Z,48.20
2018-02-23T23:09:57.588Z,48.42
2018-02-23T23:12:25.309Z,48.62
2018-02-23T23:14:52.889Z,49.00
2018-02-23T23:17:20.617Z,48.89
2018-02-23T23:19:48.281Z,49.25
2018-02-23T23:22:15.808Z,49.07
2018-02-23T23:24:43.356Z,48.41
2018-02-23T23:27:11.702Z,48.75
2018-02-23T23:29:39.223Z,48.75
2018-02-23T23:32:06.830Z,48.94
2018-02-23T23:34:34.360Z,48.53
2018-02-23T23:37:02.151Z,48.67
2018-02-23T23:39:31.618Z,49.16
2018-02-23T23:42:00.132Z,48.43
2018-02-23T23:44:27.693Z,48.57
2018-02-23T23:46:55.225Z,48.84
2018-02-23T23:49:23.192Z,49.14
2018-02-23T23:51:50.718Z,48.84
2018-02-23T23:54:18.262Z,49.44
2018-02-23T23:56:45.808Z,48.15
2018-02-23T23:59:13.322Z,47.79
